sensor_id;sensor_type;location;lat;lon;timestamp;temperature;humidity
9723;DHT22;4900;49.306;8.500;2023-12-20T00:02:08;6.68;86.23
9723;DHT22;4900;49.306;8.500;2023-12-20T00:04:33;6.68;86.10
9723;DHT22;4900;49.306;8.500;2023-12-20T00:06:59;6.74;86.00
9723;DHT22;4900;49.306;8.500;2023-12-20T00:09:24;6.72;85.91
9723;DHT22;4900;49.306;8.500;2023-12-20T00:11:50;6.72;85.96
9723;DHT22;4900;49.306;8.500;2023-12-20T00:14:15;6.72;86.05
9723;DHT22;4900;49.306;8.500;2023-12-20T00:16:41;6.70;86.23
9723;DHT22;4900;49.306;8.500;2023-12-20T00:19:06;6.65;86.34
9723;DHT22;4900;49.306;8.500;2023-12-20T00:21:38;6.65;86.36
9723;DHT22;4900;49.306;8.500;2023-12-20T00:24:07;6.72;86.20
9723;DHT22;4900;49.306;8.500;2023-12-20T00:26:32;6.75;86.05
9723;DHT22;4900;49.306;8.500;2023-12-20T00:28:58;6.75;86.21
9723;DHT22;4900;49.306;8.500;2023-12-20T00:31:23;6.77;86.11
9723;DHT22;4900;49.306;8.500;2023-12-20T00:33:48;6.75;86.10
9723;DHT22;4900;49.306;8.500;2023-12-20T00:36:14;6.78;86.05
9723;DHT22;4900;49.306;8.500;2023-12-20T00:38:39;6.71;86.44
9723;DHT22;4900;49.306;8.500;2023-12-20T00:41:05;6.74;86.34
9723;DHT22;4900;49.306;8.500;2023-12-20T00:43:30;6.82;86.14
9723;DHT22;4900;49.306;8.500;2023-12-20T00:45:55;6.82;86.04
9723;DHT22;4900;49.306;8.500;2023-12-20T00:48:21;6.79;86.19
9723;DHT22;4900;49.306;8.500;2023-12-20T00:50:46;6.78;86.26
9723;DHT22;4900;49.306;8.500;2023-12-20T00:53:12;6.78;86.10
9723;DHT22;4900;49.306;8.500;2023-12-20T00:55:37;6.68;86.73
9723;DHT22;4900;49.306;8.500;2023-12-20T00:58:03;6.72;86.57
9723;DHT22;4900;49.306;8.500;2023-12-20T01:00:28;6.74;86.41
9723;DHT22;4900;49.306;8.500;2023-12-20T01:02:54;6.77;86.56
9723;DHT22;4900;49.306;8.500;2023-12-20T01:05:20;6.75;86.50
9723;DHT22;4900;49.306;8.500;2023-12-20T01:07:48;6.71;86.57
9723;DHT22;4900;49.306;8.500;2023-12-20T01:10:14;6.78;86.44
9723;DHT22;4900;49.306;8.500;2023-12-20T01:12:40;6.74;86.60
9723;DHT22;4900;49.306;8.500;2023-12-20T01:15:05;6.77;86.53
9723;DHT22;4900;49.306;8.500;2023-12-20T01:17:31;6.74;86.59
9723;DHT22;4900;49.306;8.500;2023-12-20T01:19:56;6.65;86.82
9723;DHT22;4900;49.306;8.500;2023-12-20T01:22:22;6.72;86.52
9723;DHT22;4900;49.306;8.500;2023-12-20T01:24:47;6.74;86.48
9723;DHT22;4900;49.306;8.500;2023-12-20T01:27:22;6.67;86.90
9723;DHT22;4900;49.306;8.500;2023-12-20T01:29:47;6.64;86.89
9723;DHT22;4900;49.306;8.500;2023-12-20T01:32:13;6.67;86.84
9723;DHT22;4900;49.306;8.500;2023-12-20T01:34:38;6.68;86.65
9723;DHT22;4900;49.306;8.500;2023-12-20T01:37:03;6.61;87.00
9723;DHT22;4900;49.306;8.500;2023-12-20T01:39:29;6.74;86.70
9723;DHT22;4900;49.306;8.500;2023-12-20T01:41:54;6.67;86.71
9723;DHT22;4900;49.306;8.500;2023-12-20T01:44:20;6.70;86.71
9723;DHT22;4900;49.306;8.500;2023-12-20T01:46:52;6.67;86.80
9723;DHT22;4900;49.306;8.500;2023-12-20T01:49:17;6.74;86.62
9723;DHT22;4900;49.306;8.500;2023-12-20T01:51:52;6.72;86.47
9723;DHT22;4900;49.306;8.500;2023-12-20T01:54:19;6.72;86.47
9723;DHT22;4900;49.306;8.500;2023-12-20T01:56:45;6.70;86.59
9723;DHT22;4900;49.306;8.500;2023-12-20T01:59:11;6.75;86.48
9723;DHT22;4900;49.306;8.500;2023-12-20T02:01:37;6.75;86.53
9723;DHT22;4900;49.306;8.500;2023-12-20T02:04:03;6.71;86.50
9723;DHT22;4900;49.306;8.500;2023-12-20T02:06:30;6.64;86.68
9723;DHT22;4900;49.306;8.500;2023-12-20T02:08:59;6.68;86.77
9723;DHT22;4900;49.306;8.500;2023-12-20T02:11:25;6.65;86.76
9723;DHT22;4900;49.306;8.500;2023-12-20T02:13:51;6.70;86.90
9723;DHT22;4900;49.306;8.500;2023-12-20T02:16:17;6.71;86.75
9723;DHT22;4900;49.306;8.500;2023-12-20T02:18:43;6.74;86.76
9723;DHT22;4900;49.306;8.500;2023-12-20T02:21:10;6.74;86.72
9723;DHT22;4900;49.306;8.500;2023-12-20T02:23:35;6.72;86.59
9723;DHT22;4900;49.306;8.500;2023-12-20T02:26:01;6.72;86.53
9723;DHT22;4900;49.306;8.500;2023-12-20T02:28:27;6.79;86.43
9723;DHT22;4900;49.306;8.500;2023-12-20T02:30:53;6.75;86.51
9723;DHT22;4900;49.306;8.500;2023-12-20T02:33:18;6.75;86.48
9723;DHT22;4900;49.306;8.500;2023-12-20T02:35:44;6.74;86.54
9723;DHT22;4900;49.306;8.500;2023-12-20T02:38:09;6.78;86.59
9723;DHT22;4900;49.306;8.500;2023-12-20T02:40:35;6.74;86.53
9723;DHT22;4900;49.306;8.500;2023-12-20T02:43:00;6.77;86.70
9723;DHT22;4900;49.306;8.500;2023-12-20T02:45:26;6.78;86.52
9723;DHT22;4900;49.306;8.500;2023-12-20T02:47:52;6.74;86.53
9723;DHT22;4900;49.306;8.500;2023-12-20T02:50:17;6.74;86.84
9723;DHT22;4900;49.306;8.500;2023-12-20T02:52:45;6.74;86.60
9723;DHT22;4900;49.306;8.500;2023-12-20T02:55:10;6.77;86.69
9723;DHT22;4900;49.306;8.500;2023-12-20T02:57:35;6.78;86.67
9723;DHT22;4900;49.306;8.500;2023-12-20T03:00:01;6.74;86.74
9723;DHT22;4900;49.306;8.500;2023-12-20T03:02:27;6.72;86.75
9723;DHT22;4900;49.306;8.500;2023-12-20T03:04:52;6.75;86.78
9723;DHT22;4900;49.306;8.500;2023-12-20T03:07:18;6.75;86.72
9723;DHT22;4900;49.306;8.500;2023-12-20T03:09:43;6.74;86.79
9723;DHT22;4900;49.306;8.500;2023-12-20T03:12:09;6.74;86.87
9723;DHT22;4900;49.306;8.500;2023-12-20T03:14:34;6.77;86.68
9723;DHT22;4900;49.306;8.500;2023-12-20T03:16:59;6.79;86.65
9723;DHT22;4900;49.306;8.500;2023-12-20T03:19:25;6.77;86.65
9723;DHT22;4900;49.306;8.500;2023-12-20T03:21:50;6.82;86.53
9723;DHT22;4900;49.306;8.500;2023-12-20T03:24:18;6.78;86.64
9723;DHT22;4900;49.306;8.500;2023-12-20T03:26:43;6.74;86.74
9723;DHT22;4900;49.306;8.500;2023-12-20T03:29:15;6.74;86.82
9723;DHT22;4900;49.306;8.500;2023-12-20T03:31:40;6.79;86.61
9723;DHT22;4900;49.306;8.500;2023-12-20T03:34:06;6.78;86.56
9723;DHT22;4900;49.306;8.500;2023-12-20T03:36:31;6.75;86.71
9723;DHT22;4900;49.306;8.500;2023-12-20T03:39:09;6.72;86.78
9723;DHT22;4900;49.306;8.500;2023-12-20T03:41:35;6.75;86.74
9723;DHT22;4900;49.306;8.500;2023-12-20T03:44:00;6.74;86.81
9723;DHT22;4900;49.306;8.500;2023-12-20T03:46:26;6.77;86.70
9723;DHT22;4900;49.306;8.500;2023-12-20T03:48:52;6.74;86.78
9723;DHT22;4900;49.306;8.500;2023-12-20T03:51:18;6.77;86.78
9723;DHT22;4900;49.306;8.500;2023-12-20T03:53:43;6.79;86.66
9723;DHT22;4900;49.306;8.500;2023-12-20T03:56:08;6.82;86.59
9723;DHT22;4900;49.306;8.500;2023-12-20T03:58:34;6.77;86.68
9723;DHT22;4900;49.306;8.500;2023-12-20T04:01:00;6.77;86.65
9723;DHT22;4900;49.306;8.500;2023-12-20T04:03:26;6.71;86.96
9723;DHT22;4900;49.306;8.500;2023-12-20T04:05:51;6.70;86.97
9723;DHT22;4900;49.306;8.500;2023-12-20T04:08:38;6.65;87.23
9723;DHT22;4900;49.306;8.500;2023-12-20T04:11:04;6.68;86.92
9723;DHT22;4900;49.306;8.500;2023-12-20T04:13:29;6.70;86.95
9723;DHT22;4900;49.306;8.500;2023-12-20T04:15:55;6.74;86.89
9723;DHT22;4900;49.306;8.500;2023-12-20T04:18:20;6.71;87.05
9723;DHT22;4900;49.306;8.500;2023-12-20T04:20:45;6.71;87.06
9723;DHT22;4900;49.306;8.500;2023-12-20T04:23:11;6.71;86.91
9723;DHT22;4900;49.306;8.500;2023-12-20T04:25:36;6.71;87.03
9723;DHT22;4900;49.306;8.500;2023-12-20T04:28:02;6.77;86.95
9723;DHT22;4900;49.306;8.500;2023-12-20T04:30:28;6.78;86.83
9723;DHT22;4900;49.306;8.500;2023-12-20T04:32:53;6.79;86.77
9723;DHT22;4900;49.306;8.500;2023-12-20T04:35:18;6.79;86.76
9723;DHT22;4900;49.306;8.500;2023-12-20T04:37:44;6.81;86.74
9723;DHT22;4900;49.306;8.500;2023-12-20T04:40:09;6.81;86.68
9723;DHT22;4900;49.306;8.500;2023-12-20T04:42:35;6.82;86.76
9723;DHT22;4900;49.306;8.500;2023-12-20T04:45:00;6.82;86.76
9723;DHT22;4900;49.306;8.500;2023-12-20T04:47:26;6.88;86.67
9723;DHT22;4900;49.306;8.500;2023-12-20T04:49:51;6.91;86.64
9723;DHT22;4900;49.306;8.500;2023-12-20T04:52:16;6.92;86.58
9723;DHT22;4900;49.306;8.500;2023-12-20T04:54:42;6.93;86.43
9723;DHT22;4900;49.306;8.500;2023-12-20T04:57:07;6.91;86.45
9723;DHT22;4900;49.306;8.500;2023-12-20T04:59:33;6.95;86.40
9723;DHT22;4900;49.306;8.500;2023-12-20T05:01:58;6.89;86.37
9723;DHT22;4900;49.306;8.500;2023-12-20T05:04:25;6.91;86.44
9723;DHT22;4900;49.306;8.500;2023-12-20T05:06:50;6.95;86.41
9723;DHT22;4900;49.306;8.500;2023-12-20T05:09:16;6.92;86.43
9723;DHT22;4900;49.306;8.500;2023-12-20T05:11:41;6.87;86.36
9723;DHT22;4900;49.306;8.500;2023-12-20T05:14:06;6.91;86.30
9723;DHT22;4900;49.306;8.500;2023-12-20T05:16:32;6.89;86.48
9723;DHT22;4900;49.306;8.500;2023-12-20T05:18:58;6.85;86.51
9723;DHT22;4900;49.306;8.500;2023-12-20T05:21:26;6.79;86.53
9723;DHT22;4900;49.306;8.500;2023-12-20T05:23:51;6.77;86.48
9723;DHT22;4900;49.306;8.500;2023-12-20T05:26:16;6.78;86.30
9723;DHT22;4900;49.306;8.500;2023-12-20T05:28:42;6.74;86.44
9723;DHT22;4900;49.306;8.500;2023-12-20T05:31:07;6.77;86.43
9723;DHT22;4900;49.306;8.500;2023-12-20T05:33:32;6.82;86.37
9723;DHT22;4900;49.306;8.500;2023-12-20T05:35:58;6.78;86.36
9723;DHT22;4900;49.306;8.500;2023-12-20T05:38:24;6.84;86.40
9723;DHT22;4900;49.306;8.500;2023-12-20T05:40:49;6.84;86.38
9723;DHT22;4900;49.306;8.500;2023-12-20T05:43:15;6.85;86.47
9723;DHT22;4900;49.306;8.500;2023-12-20T05:45:40;6.87;86.44
9723;DHT22;4900;49.306;8.500;2023-12-20T05:48:06;6.84;86.50
9723;DHT22;4900;49.306;8.500;2023-12-20T05:50:31;6.85;86.65
9723;DHT22;4900;49.306;8.500;2023-12-20T05:52:56;6.78;86.92
9723;DHT22;4900;49.306;8.500;2023-12-20T05:55:22;6.82;86.97
9723;DHT22;4900;49.306;8.500;2023-12-20T05:57:48;6.87;86.74
9723;DHT22;4900;49.306;8.500;2023-12-20T06:00:13;6.89;86.75
9723;DHT22;4900;49.306;8.500;2023-12-20T06:02:39;6.91;86.66
9723;DHT22;4900;49.306;8.500;2023-12-20T06:05:05;6.93;86.59
9723;DHT22;4900;49.306;8.500;2023-12-20T06:07:30;6.92;86.48
9723;DHT22;4900;49.306;8.500;2023-12-20T06:09:56;6.91;86.37
9723;DHT22;4900;49.306;8.500;2023-12-20T06:12:21;6.91;86.38
9723;DHT22;4900;49.306;8.500;2023-12-20T06:14:47;6.91;86.35
9723;DHT22;4900;49.306;8.500;2023-12-20T06:17:12;6.89;86.12
9723;DHT22;4900;49.306;8.500;2023-12-20T06:19:37;6.87;86.23
9723;DHT22;4900;49.306;8.500;2023-12-20T06:22:09;6.82;86.32
9723;DHT22;4900;49.306;8.500;2023-12-20T06:24:36;6.91;86.22
9723;DHT22;4900;49.306;8.500;2023-12-20T06:27:01;6.92;86.19
9723;DHT22;4900;49.306;8.500;2023-12-20T06:29:27;6.93;86.21
9723;DHT22;4900;49.306;8.500;2023-12-20T06:31:54;6.93;86.16
9723;DHT22;4900;49.306;8.500;2023-12-20T06:34:19;6.96;86.14
9723;DHT22;4900;49.306;8.500;2023-12-20T06:36:47;6.95;86.10
9723;DHT22;4900;49.306;8.500;2023-12-20T06:39:12;6.95;85.98
9723;DHT22;4900;49.306;8.500;2023-12-20T06:41:39;6.99;85.92
9723;DHT22;4900;49.306;8.500;2023-12-20T06:44:04;6.99;85.81
9723;DHT22;4900;49.306;8.500;2023-12-20T06:46:30;6.99;85.78
9723;DHT22;4900;49.306;8.500;2023-12-20T06:48:55;7.00;85.83
9723;DHT22;4900;49.306;8.500;2023-12-20T06:51:21;6.99;85.76
9723;DHT22;4900;49.306;8.500;2023-12-20T06:53:51;6.98;85.82
9723;DHT22;4900;49.306;8.500;2023-12-20T06:56:16;7.00;85.82
9723;DHT22;4900;49.306;8.500;2023-12-20T06:58:54;6.98;85.76
9723;DHT22;4900;49.306;8.500;2023-12-20T07:01:19;6.96;85.69
9723;DHT22;4900;49.306;8.500;2023-12-20T07:03:45;6.92;85.82
9723;DHT22;4900;49.306;8.500;2023-12-20T07:06:10;7.00;85.75
9723;DHT22;4900;49.306;8.500;2023-12-20T07:08:36;6.96;85.67
9723;DHT22;4900;49.306;8.500;2023-12-20T07:11:01;6.98;85.67
9723;DHT22;4900;49.306;8.500;2023-12-20T07:13:27;6.96;85.60
9723;DHT22;4900;49.306;8.500;2023-12-20T07:15:52;6.98;85.59
9723;DHT22;4900;49.306;8.500;2023-12-20T07:18:18;6.98;85.56
9723;DHT22;4900;49.306;8.500;2023-12-20T07:20:43;6.96;85.44
9723;DHT22;4900;49.306;8.500;2023-12-20T07:23:09;6.95;85.42
9723;DHT22;4900;49.306;8.500;2023-12-20T07:25:34;6.91;85.27
9723;DHT22;4900;49.306;8.500;2023-12-20T07:28:00;6.87;85.06
9723;DHT22;4900;49.306;8.500;2023-12-20T07:30:25;6.78;84.80
9723;DHT22;4900;49.306;8.500;2023-12-20T07:32:50;6.70;84.60
9723;DHT22;4900;49.306;8.500;2023-12-20T07:35:17;6.63;84.57
9723;DHT22;4900;49.306;8.500;2023-12-20T07:37:43;6.55;84.57
9723;DHT22;4900;49.306;8.500;2023-12-20T07:40:09;6.50;84.57
9723;DHT22;4900;49.306;8.500;2023-12-20T07:42:35;6.44;84.52
9723;DHT22;4900;49.306;8.500;2023-12-20T07:45:00;6.38;84.57
9723;DHT22;4900;49.306;8.500;2023-12-20T07:47:26;6.37;84.58
9723;DHT22;4900;49.306;8.500;2023-12-20T07:49:51;6.34;84.58
9723;DHT22;4900;49.306;8.500;2023-12-20T07:52:20;6.30;84.62
9723;DHT22;4900;49.306;8.500;2023-12-20T07:54:47;6.29;84.56
9723;DHT22;4900;49.306;8.500;2023-12-20T07:57:13;6.20;84.52
9723;DHT22;4900;49.306;8.500;2023-12-20T07:59:38;6.17;84.59
9723;DHT22;4900;49.306;8.500;2023-12-20T08:02:04;6.13;84.56
9723;DHT22;4900;49.306;8.500;2023-12-20T08:04:29;6.12;84.79
9723;DHT22;4900;49.306;8.500;2023-12-20T08:06:55;6.12;84.81
9723;DHT22;4900;49.306;8.500;2023-12-20T08:09:20;6.09;84.85
9723;DHT22;4900;49.306;8.500;2023-12-20T08:11:46;6.10;84.80
9723;DHT22;4900;49.306;8.500;2023-12-20T08:14:12;6.09;84.69
9723;DHT22;4900;49.306;8.500;2023-12-20T08:16:37;6.10;84.61
9723;DHT22;4900;49.306;8.500;2023-12-20T08:19:03;6.15;84.41
9723;DHT22;4900;49.306;8.500;2023-12-20T08:21:28;6.17;84.12
9723;DHT22;4900;49.306;8.500;2023-12-20T08:23:54;6.17;84.21
9723;DHT22;4900;49.306;8.500;2023-12-20T08:26:20;6.19;84.10
9723;DHT22;4900;49.306;8.500;2023-12-20T08:28:46;6.19;84.04
9723;DHT22;4900;49.306;8.500;2023-12-20T08:31:15;6.25;84.24
9723;DHT22;4900;49.306;8.500;2023-12-20T08:33:45;6.30;84.22
9723;DHT22;4900;49.306;8.500;2023-12-20T08:36:11;6.38;84.26
9723;DHT22;4900;49.306;8.500;2023-12-20T08:38:37;6.37;84.32
9723;DHT22;4900;49.306;8.500;2023-12-20T08:41:03;6.40;84.35
9723;DHT22;4900;49.306;8.500;2023-12-20T08:43:34;6.36;84.57
9723;DHT22;4900;49.306;8.500;2023-12-20T08:46:00;6.30;84.77
9723;DHT22;4900;49.306;8.500;2023-12-20T08:48:25;6.45;84.64
9723;DHT22;4900;49.306;8.500;2023-12-20T08:50:51;6.45;84.60
9723;DHT22;4900;49.306;8.500;2023-12-20T08:53:18;6.47;84.68
9723;DHT22;4900;49.306;8.500;2023-12-20T08:55:44;6.54;84.68
9723;DHT22;4900;49.306;8.500;2023-12-20T08:58:10;6.60;84.62
9723;DHT22;4900;49.306;8.500;2023-12-20T09:00:35;6.63;84.38
9723;DHT22;4900;49.306;8.500;2023-12-20T09:03:01;6.61;84.09
9723;DHT22;4900;49.306;8.500;2023-12-20T09:05:27;6.61;83.99
9723;DHT22;4900;49.306;8.500;2023-12-20T09:07:53;6.71;83.86
9723;DHT22;4900;49.306;8.500;2023-12-20T09:10:18;6.72;83.79
9723;DHT22;4900;49.306;8.500;2023-12-20T09:12:49;6.77;83.52
9723;DHT22;4900;49.306;8.500;2023-12-20T09:15:15;6.72;83.34
9723;DHT22;4900;49.306;8.500;2023-12-20T09:17:40;6.77;83.18
9723;DHT22;4900;49.306;8.500;2023-12-20T09:20:07;6.71;83.30
9723;DHT22;4900;49.306;8.500;2023-12-20T09:22:33;6.74;83.17
9723;DHT22;4900;49.306;8.500;2023-12-20T09:24:59;6.68;83.07
9723;DHT22;4900;49.306;8.500;2023-12-20T09:27:25;6.68;83.16
9723;DHT22;4900;49.306;8.500;2023-12-20T09:29:50;6.75;83.07
9723;DHT22;4900;49.306;8.500;2023-12-20T09:32:18;6.84;83.21
9723;DHT22;4900;49.306;8.500;2023-12-20T09:34:45;6.96;82.83
9723;DHT22;4900;49.306;8.500;2023-12-20T09:37:11;7.15;82.59
9723;DHT22;4900;49.306;8.500;2023-12-20T09:39:37;7.33;81.99
9723;DHT22;4900;49.306;8.500;2023-12-20T09:42:04;7.34;81.76
9723;DHT22;4900;49.306;8.500;2023-12-20T09:44:31;7.50;81.41
9723;DHT22;4900;49.306;8.500;2023-12-20T09:46:57;7.63;80.57
9723;DHT22;4900;49.306;8.500;2023-12-20T09:49:22;7.74;80.51
9723;DHT22;4900;49.306;8.500;2023-12-20T09:51:50;7.92;80.22
9723;DHT22;4900;49.306;8.500;2023-12-20T09:54:17;8.05;79.84
9723;DHT22;4900;49.306;8.500;2023-12-20T09:56:43;8.10;79.52
9723;DHT22;4900;49.306;8.500;2023-12-20T09:59:09;8.21;79.31
9723;DHT22;4900;49.306;8.500;2023-12-20T10:01:35;8.37;78.89
9723;DHT22;4900;49.306;8.500;2023-12-20T10:04:05;8.55;78.36
9723;DHT22;4900;49.306;8.500;2023-12-20T10:06:40;8.72;77.77
9723;DHT22;4900;49.306;8.500;2023-12-20T10:09:06;8.90;76.91
9723;DHT22;4900;49.306;8.500;2023-12-20T10:11:32;9.07;76.46
9723;DHT22;4900;49.306;8.500;2023-12-20T10:14:01;9.27;76.02
9723;DHT22;4900;49.306;8.500;2023-12-20T10:16:27;9.44;75.10
9723;DHT22;4900;49.306;8.500;2023-12-20T10:18:54;9.53;74.46
9723;DHT22;4900;49.306;8.500;2023-12-20T10:21:21;9.61;73.87
9723;DHT22;4900;49.306;8.500;2023-12-20T10:23:47;9.78;73.91
9723;DHT22;4900;49.306;8.500;2023-12-20T10:26:22;9.80;73.36
9723;DHT22;4900;49.306;8.500;2023-12-20T10:28:53;10.04;72.89
9723;DHT22;4900;49.306;8.500;2023-12-20T10:31:32;10.18;72.69
9723;DHT22;4900;49.306;8.500;2023-12-20T10:33:58;10.48;71.75
9723;DHT22;4900;49.306;8.500;2023-12-20T10:36:26;10.70;71.32
9723;DHT22;4900;49.306;8.500;2023-12-20T10:38:55;11.00;70.45
9723;DHT22;4900;49.306;8.500;2023-12-20T10:43:51;10.93;70.20
9723;DHT22;4900;49.306;8.500;2023-12-20T10:46:19;10.86;69.65
9723;DHT22;4900;49.306;8.500;2023-12-20T10:48:45;10.76;69.83
9723;DHT22;4900;49.306;8.500;2023-12-20T10:51:14;10.53;70.19
9723;DHT22;4900;49.306;8.500;2023-12-20T10:53:42;10.38;70.20
9723;DHT22;4900;49.306;8.500;2023-12-20T10:56:12;10.14;70.23
9723;DHT22;4900;49.306;8.500;2023-12-20T10:58:41;10.20;70.48
9723;DHT22;4900;49.306;8.500;2023-12-20T11:01:08;9.94;71.01
9723;DHT22;4900;49.306;8.500;2023-12-20T11:03:36;9.70;71.31
9723;DHT22;4900;49.306;8.500;2023-12-20T11:09:08;9.53;71.76
9723;DHT22;4900;49.306;8.500;2023-12-20T11:11:59;9.61;71.58
9723;DHT22;4900;49.306;8.500;2023-12-20T11:14:35;9.53;72.05
9723;DHT22;4900;49.306;8.500;2023-12-20T11:17:10;9.44;72.33
9723;DHT22;4900;49.306;8.500;2023-12-20T11:22:25;9.45;72.74
9723;DHT22;4900;49.306;8.500;2023-12-20T11:24:52;9.39;72.98
9723;DHT22;4900;49.306;8.500;2023-12-20T11:27:18;9.44;72.98
9723;DHT22;4900;49.306;8.500;2023-12-20T11:29:54;9.44;73.14
9723;DHT22;4900;49.306;8.500;2023-12-20T11:35:20;9.46;73.49
9723;DHT22;4900;49.306;8.500;2023-12-20T11:37:46;9.49;73.43
9723;DHT22;4900;49.306;8.500;2023-12-20T11:40:16;9.58;73.43
9723;DHT22;4900;49.306;8.500;2023-12-20T11:42:46;9.56;73.48
9723;DHT22;4900;49.306;8.500;2023-12-20T11:45:18;9.52;73.28
9723;DHT22;4900;49.306;8.500;2023-12-20T11:47:49;9.44;73.03
9723;DHT22;4900;49.306;8.500;2023-12-20T11:50:20;9.46;72.83
9723;DHT22;4900;49.306;8.500;2023-12-20T11:52:46;9.30;72.82
9723;DHT22;4900;49.306;8.500;2023-12-20T11:55:11;9.20;73.26
9723;DHT22;4900;49.306;8.500;2023-12-20T11:57:38;9.32;73.15
9723;DHT22;4900;49.306;8.500;2023-12-20T12:00:04;9.53;72.89
9723;DHT22;4900;49.306;8.500;2023-12-20T12:02:30;9.56;72.77
9723;DHT22;4900;49.306;8.500;2023-12-20T12:04:56;9.70;72.74
9723;DHT22;4900;49.306;8.500;2023-12-20T12:07:22;9.67;72.66
9723;DHT22;4900;49.306;8.500;2023-12-20T12:09:47;9.65;72.93
9723;DHT22;4900;49.306;8.500;2023-12-20T12:12:14;9.51;73.00
9723;DHT22;4900;49.306;8.500;2023-12-20T12:14:39;9.49;73.16
9723;DHT22;4900;49.306;8.500;2023-12-20T12:17:12;9.48;72.77
9723;DHT22;4900;49.306;8.500;2023-12-20T12:19:41;9.23;73.19
9723;DHT22;4900;49.306;8.500;2023-12-20T12:22:12;9.16;73.20
9723;DHT22;4900;49.306;8.500;2023-12-20T12:24:45;9.20;73.31
9723;DHT22;4900;49.306;8.500;2023-12-20T12:27:12;9.16;73.51
9723;DHT22;4900;49.306;8.500;2023-12-20T12:29:38;9.11;73.57
9723;DHT22;4900;49.306;8.500;2023-12-20T12:32:05;9.08;73.71
9723;DHT22;4900;49.306;8.500;2023-12-20T12:34:32;8.99;74.00
9723;DHT22;4900;49.306;8.500;2023-12-20T12:36:58;8.96;74.02
9723;DHT22;4900;49.306;8.500;2023-12-20T12:39:24;8.95;74.03
9723;DHT22;4900;49.306;8.500;2023-12-20T12:41:53;8.73;74.15
9723;DHT22;4900;49.306;8.500;2023-12-20T12:44:18;8.72;74.17
9723;DHT22;4900;49.306;8.500;2023-12-20T12:46:47;8.68;74.10
9723;DHT22;4900;49.306;8.500;2023-12-20T12:49:15;8.63;74.03
9723;DHT22;4900;49.306;8.500;2023-12-20T12:51:40;8.66;74.08
9723;DHT22;4900;49.306;8.500;2023-12-20T12:54:06;8.55;74.08
9723;DHT22;4900;49.306;8.500;2023-12-20T12:56:31;8.49;74.46
9723;DHT22;4900;49.306;8.500;2023-12-20T12:58:57;8.49;74.23
9723;DHT22;4900;49.306;8.500;2023-12-20T13:01:22;8.52;74.33
9723;DHT22;4900;49.306;8.500;2023-12-20T13:03:48;8.59;74.36
9723;DHT22;4900;49.306;8.500;2023-12-20T13:06:13;8.48;74.56
9723;DHT22;4900;49.306;8.500;2023-12-20T13:08:39;8.46;74.69
9723;DHT22;4900;49.306;8.500;2023-12-20T13:11:05;8.45;74.69
9723;DHT22;4900;49.306;8.500;2023-12-20T13:13:31;8.41;74.79
9723;DHT22;4900;49.306;8.500;2023-12-20T13:15:56;8.51;74.60
9723;DHT22;4900;49.306;8.500;2023-12-20T13:18:23;8.45;74.68
9723;DHT22;4900;49.306;8.500;2023-12-20T13:20:49;8.38;74.84
9723;DHT22;4900;49.306;8.500;2023-12-20T13:23:15;8.34;74.87
9723;DHT22;4900;49.306;8.500;2023-12-20T13:25:44;8.27;75.18
9723;DHT22;4900;49.306;8.500;2023-12-20T13:28:11;8.20;75.30
9723;DHT22;4900;49.306;8.500;2023-12-20T13:30:38;8.21;75.30
9723;DHT22;4900;49.306;8.500;2023-12-20T13:33:04;8.26;75.12
9723;DHT22;4900;49.306;8.500;2023-12-20T13:35:31;8.28;75.18
9723;DHT22;4900;49.306;8.500;2023-12-20T13:37:57;8.30;75.25
9723;DHT22;4900;49.306;8.500;2023-12-20T13:40:22;8.34;75.33
9723;DHT22;4900;49.306;8.500;2023-12-20T13:42:48;8.34;75.33
9723;DHT22;4900;49.306;8.500;2023-12-20T13:45:13;8.34;75.30
9723;DHT22;4900;49.306;8.500;2023-12-20T13:47:39;8.46;75.19
9723;DHT22;4900;49.306;8.500;2023-12-20T13:50:05;8.54;75.06
9723;DHT22;4900;49.306;8.500;2023-12-20T13:52:30;8.51;75.14
9723;DHT22;4900;49.306;8.500;2023-12-20T13:54:56;8.54;74.87
9723;DHT22;4900;49.306;8.500;2023-12-20T13:57:22;8.52;74.85
9723;DHT22;4900;49.306;8.500;2023-12-20T13:59:47;8.54;74.97
9723;DHT22;4900;49.306;8.500;2023-12-20T14:02:13;8.52;74.80
9723;DHT22;4900;49.306;8.500;2023-12-20T14:04:42;8.45;75.10
9723;DHT22;4900;49.306;8.500;2023-12-20T14:07:07;8.51;74.91
9723;DHT22;4900;49.306;8.500;2023-12-20T14:09:34;8.61;74.67
9723;DHT22;4900;49.306;8.500;2023-12-20T14:12:00;8.58;74.71
9723;DHT22;4900;49.306;8.500;2023-12-20T14:14:25;8.62;74.50
9723;DHT22;4900;49.306;8.500;2023-12-20T14:16:51;8.49;74.91
9723;DHT22;4900;49.306;8.500;2023-12-20T14:19:16;8.48;74.62
9723;DHT22;4900;49.306;8.500;2023-12-20T14:21:47;8.59;74.52
9723;DHT22;4900;49.306;8.500;2023-12-20T14:24:13;8.52;74.48
9723;DHT22;4900;49.306;8.500;2023-12-20T14:26:40;8.56;74.58
9723;DHT22;4900;49.306;8.500;2023-12-20T14:29:06;8.46;74.54
9723;DHT22;4900;49.306;8.500;2023-12-20T14:31:33;8.45;74.70
9723;DHT22;4900;49.306;8.500;2023-12-20T14:33:59;8.46;74.80
9723;DHT22;4900;49.306;8.500;2023-12-20T14:36:24;8.48;74.80
9723;DHT22;4900;49.306;8.500;2023-12-20T14:38:50;8.51;74.79
9723;DHT22;4900;49.306;8.500;2023-12-20T14:41:16;8.35;74.92
9723;DHT22;4900;49.306;8.500;2023-12-20T14:43:43;8.38;74.76
9723;DHT22;4900;49.306;8.500;2023-12-20T14:46:08;8.34;74.96
9723;DHT22;4900;49.306;8.500;2023-12-20T14:48:34;8.24;75.14
9723;DHT22;4900;49.306;8.500;2023-12-20T14:50:59;8.13;75.19
9723;DHT22;4900;49.306;8.500;2023-12-20T14:53:26;8.07;75.37
9723;DHT22;4900;49.306;8.500;2023-12-20T14:55:51;7.98;75.51
9723;DHT22;4900;49.306;8.500;2023-12-20T14:58:17;7.92;75.96
9723;DHT22;4900;49.306;8.500;2023-12-20T15:00:42;7.83;76.09
9723;DHT22;4900;49.306;8.500;2023-12-20T15:03:09;7.85;76.17
9723;DHT22;4900;49.306;8.500;2023-12-20T15:05:34;7.79;76.42
9723;DHT22;4900;49.306;8.500;2023-12-20T15:08:01;7.79;76.58
9723;DHT22;4900;49.306;8.500;2023-12-20T15:10:26;7.81;76.74
9723;DHT22;4900;49.306;8.500;2023-12-20T15:12:52;7.75;77.05
9723;DHT22;4900;49.306;8.500;2023-12-20T15:15:17;7.82;77.00
9723;DHT22;4900;49.306;8.500;2023-12-20T15:17:43;7.83;77.05
9723;DHT22;4900;49.306;8.500;2023-12-20T15:20:08;7.74;77.56
9723;DHT22;4900;49.306;8.500;2023-12-20T15:22:35;7.77;77.67
9723;DHT22;4900;49.306;8.500;2023-12-20T15:25:01;7.71;77.79
9723;DHT22;4900;49.306;8.500;2023-12-20T15:27:28;7.71;77.84
9723;DHT22;4900;49.306;8.500;2023-12-20T15:29:53;7.69;77.81
9723;DHT22;4900;49.306;8.500;2023-12-20T15:32:19;7.71;77.83
9723;DHT22;4900;49.306;8.500;2023-12-20T15:34:45;7.74;77.85
9723;DHT22;4900;49.306;8.500;2023-12-20T15:37:11;7.77;77.82
9723;DHT22;4900;49.306;8.500;2023-12-20T15:39:36;7.77;77.81
9723;DHT22;4900;49.306;8.500;2023-12-20T15:42:02;7.71;77.99
9723;DHT22;4900;49.306;8.500;2023-12-20T15:44:28;7.75;77.78
9723;DHT22;4900;49.306;8.500;2023-12-20T15:46:53;7.74;77.77
9723;DHT22;4900;49.306;8.500;2023-12-20T15:49:19;7.68;77.96
9723;DHT22;4900;49.306;8.500;2023-12-20T15:51:44;7.69;77.88
9723;DHT22;4900;49.306;8.500;2023-12-20T15:54:10;7.59;78.04
9723;DHT22;4900;49.306;8.500;2023-12-20T15:56:36;7.56;78.31
9723;DHT22;4900;49.306;8.500;2023-12-20T15:59:03;7.55;78.27
9723;DHT22;4900;49.306;8.500;2023-12-20T16:01:32;7.30;79.04
9723;DHT22;4900;49.306;8.500;2023-12-20T16:03:57;7.30;79.03
9723;DHT22;4900;49.306;8.500;2023-12-20T16:06:23;7.43;78.77
9723;DHT22;4900;49.306;8.500;2023-12-20T16:08:49;7.41;78.86
9723;DHT22;4900;49.306;8.500;2023-12-20T16:11:14;7.41;78.89
9723;DHT22;4900;49.306;8.500;2023-12-20T16:13:40;7.37;78.94
9723;DHT22;4900;49.306;8.500;2023-12-20T16:16:06;7.27;79.27
9723;DHT22;4900;49.306;8.500;2023-12-20T16:18:32;7.37;79.02
9723;DHT22;4900;49.306;8.500;2023-12-20T16:20:58;7.28;79.31
9723;DHT22;4900;49.306;8.500;2023-12-20T16:23:26;7.38;79.16